JAL234 RJOB-RJTT
Flight info
| Callsign | JAL234 |
|---|---|
| Flight time | N/A |
| Altitude | 35000 |
| Route | OLIVE HYOGO SANDA Y289 SHTLE Y71 XAC |
| Aircraft | B738/M-SDE2E3FGHIRWXY/LB1 |
Departure
| Time | 2026-04-25 11:41 |
|---|---|
| Airport | Okayama Momotaro Airport (RJOB) |
Arrival
| Time | N/A |
|---|---|
| Airport | Tokyo Haneda International Airport (RJTT) |
| Time | Latitude | Longitude | Altitude | Speed | Heading |
|---|---|---|---|---|---|
| 2026-04-25 11:26 | 34.75994 | 133.85379 | 806 ft | 0 kts | 330° |
| 2026-04-25 11:32 | 34.75973 | 133.85394 | 806 ft | 4 kts | 330° |
| 2026-04-25 11:32 | 34.75949 | 133.85411 | 805 ft | 4 kts | 330° |
| 2026-04-25 11:33 | 34.75931 | 133.85424 | 805 ft | 4 kts | 328° |
| 2026-04-25 11:33 | 34.75909 | 133.85442 | 805 ft | 4 kts | 320° |
| 2026-04-25 11:33 | 34.75889 | 133.85465 | 805 ft | 4 kts | 307° |
| 2026-04-25 11:33 | 34.75879 | 133.85484 | 805 ft | 0 kts | 295° |
| 2026-04-25 11:36 | 34.75879 | 133.85482 | 805 ft | 1 kts | 288° |
| 2026-04-25 11:36 | 34.75853 | 133.85448 | 805 ft | 8 kts | 213° |
| 2026-04-25 11:37 | 34.75811 | 133.85393 | 804 ft | 10 kts | 236° |
| 2026-04-25 11:37 | 34.75772 | 133.85316 | 804 ft | 11 kts | 238° |
| 2026-04-25 11:37 | 34.75720 | 133.85207 | 804 ft | 19 kts | 240° |
| 2026-04-25 11:37 | 34.75637 | 133.85040 | 805 ft | 26 kts | 238° |
| 2026-04-25 11:38 | 34.75548 | 133.84859 | 805 ft | 24 kts | 239° |
| 2026-04-25 11:38 | 34.75466 | 133.84690 | 805 ft | 23 kts | 239° |
| 2026-04-25 11:38 | 34.75387 | 133.84531 | 805 ft | 21 kts | 239° |
| 2026-04-25 11:38 | 34.75303 | 133.84361 | 804 ft | 44 kts | 239° |
| 2026-04-25 11:39 | 34.75182 | 133.84116 | 804 ft | 20 kts | 235° |
| 2026-04-25 11:39 | 34.75108 | 133.84083 | 803 ft | 0 kts | 158° |
| 2026-04-25 11:39 | 34.75104 | 133.84085 | 803 ft | 4 kts | 156° |
| 2026-04-25 11:40 | 34.75039 | 133.84131 | 798 ft | 15 kts | 147° |
| 2026-04-25 11:40 | 34.75029 | 133.84201 | 797 ft | 6 kts | 57° |
| 2026-04-25 11:40 | 34.75030 | 133.84202 | 797 ft | 0 kts | 57° |
| 2026-04-25 11:40 | 34.75111 | 133.84369 | 797 ft | 65 kts | 58° |
| 2026-04-25 11:41 | 34.75498 | 133.85148 | 802 ft | 148 kts | 59° |
| 2026-04-25 11:41 | 34.76095 | 133.86330 | 1448 ft | 166 kts | 57° |
| 2026-04-25 11:41 | 34.76688 | 133.87483 | 2586 ft | 164 kts | 58° |
| 2026-04-25 11:41 | 34.77312 | 133.88764 | 3159 ft | 190 kts | 58° |
| 2026-04-25 11:42 | 34.78010 | 133.90204 | 3774 ft | 201 kts | 59° |
| 2026-04-25 11:42 | 34.78715 | 133.91654 | 4375 ft | 206 kts | 60° |
| 2026-04-25 11:42 | 34.79311 | 133.93338 | 4610 ft | 231 kts | 83° |
| 2026-04-25 11:42 | 34.79241 | 133.95338 | 5108 ft | 242 kts | 96° |
| 2026-04-25 11:43 | 34.79078 | 133.97388 | 5805 ft | 245 kts | 96° |
| 2026-04-25 11:43 | 34.78913 | 133.99468 | 6535 ft | 248 kts | 96° |
| 2026-04-25 11:43 | 34.78751 | 134.01570 | 7214 ft | 251 kts | 96° |
| 2026-04-25 11:43 | 34.78589 | 134.03694 | 7899 ft | 254 kts | 95° |
| 2026-04-25 11:44 | 34.78428 | 134.05849 | 8540 ft | 258 kts | 95° |
| 2026-04-25 11:44 | 34.78265 | 134.08034 | 9196 ft | 260 kts | 95° |
| 2026-04-25 11:44 | 34.78102 | 134.10238 | 9826 ft | 264 kts | 95° |
| 2026-04-25 11:44 | 34.77935 | 134.12484 | 10403 ft | 269 kts | 95° |
| 2026-04-25 11:45 | 34.77767 | 134.14757 | 11061 ft | 269 kts | 95° |
| 2026-04-25 11:45 | 34.77599 | 134.17027 | 11718 ft | 271 kts | 94° |
| 2026-04-25 11:45 | 34.77428 | 134.19321 | 12287 ft | 275 kts | 94° |
| 2026-04-25 11:45 | 34.77254 | 134.21662 | 12787 ft | 281 kts | 94° |
| 2026-04-25 11:46 | 34.77078 | 134.24057 | 13263 ft | 288 kts | 94° |
| 2026-04-25 11:46 | 34.76897 | 134.26500 | 13779 ft | 292 kts | 94° |
| 2026-04-25 11:46 | 34.76711 | 134.28983 | 14272 ft | 297 kts | 95° |
| 2026-04-25 11:46 | 34.76522 | 134.31501 | 14785 ft | 301 kts | 95° |
| 2026-04-25 11:47 | 34.76330 | 134.34041 | 15322 ft | 303 kts | 95° |
| 2026-04-25 11:47 | 34.76136 | 134.36606 | 15800 ft | 307 kts | 95° |
| 2026-04-25 11:47 | 34.75939 | 134.39209 | 16260 ft | 311 kts | 95° |
| 2026-04-25 11:47 | 34.75739 | 134.41840 | 16749 ft | 313 kts | 96° |
| 2026-04-25 11:48 | 34.75548 | 134.44491 | 17203 ft | 317 kts | 93° |
| 2026-04-25 11:48 | 34.75781 | 134.47169 | 17613 ft | 321 kts | 77° |
| 2026-04-25 11:48 | 34.76297 | 134.49821 | 18068 ft | 323 kts | 75° |
| 2026-04-25 11:48 | 34.76839 | 134.52450 | 18491 ft | 327 kts | 75° |
| 2026-04-25 11:49 | 34.77392 | 134.55147 | 18889 ft | 331 kts | 75° |
| 2026-04-25 11:49 | 34.77942 | 134.57874 | 19311 ft | 333 kts | 76° |
| 2026-04-25 11:49 | 34.78486 | 134.60628 | 19701 ft | 337 kts | 76° |
| 2026-04-25 11:49 | 34.79028 | 134.63414 | 20064 ft | 340 kts | 76° |
| 2026-04-25 11:50 | 34.79573 | 134.66233 | 20428 ft | 344 kts | 76° |
| 2026-04-25 11:50 | 34.80119 | 134.69080 | 20792 ft | 347 kts | 77° |
| 2026-04-25 11:50 | 34.80669 | 134.71958 | 21151 ft | 351 kts | 77° |
| 2026-04-25 11:50 | 34.81221 | 134.74857 | 21519 ft | 353 kts | 77° |
| 2026-04-25 11:51 | 34.81778 | 134.77786 | 21872 ft | 357 kts | 77° |
| 2026-04-25 11:51 | 34.82339 | 134.80741 | 22182 ft | 360 kts | 77° |
| 2026-04-25 11:51 | 34.82904 | 134.83718 | 22520 ft | 362 kts | 77° |
| 2026-04-25 11:51 | 34.83471 | 134.86716 | 22838 ft | 366 kts | 77° |
| 2026-04-25 11:52 | 34.84043 | 134.89743 | 23153 ft | 368 kts | 77° |
| 2026-04-25 11:52 | 34.84617 | 134.92786 | 23464 ft | 371 kts | 77° |
| 2026-04-25 11:52 | 34.85197 | 134.95858 | 23749 ft | 374 kts | 77° |
| 2026-04-25 11:52 | 34.85779 | 134.98949 | 24053 ft | 376 kts | 77° |
| 2026-04-25 11:53 | 34.86376 | 135.02063 | 24310 ft | 379 kts | 77° |
| 2026-04-25 11:53 | 34.86995 | 135.05196 | 24579 ft | 382 kts | 77° |
| 2026-04-25 11:53 | 34.87625 | 135.08356 | 24809 ft | 386 kts | 77° |
| 2026-04-25 11:53 | 34.88259 | 135.11546 | 25051 ft | 389 kts | 77° |
| 2026-04-25 11:54 | 34.88896 | 135.14761 | 25301 ft | 392 kts | 77° |
| 2026-04-25 11:54 | 34.89536 | 135.17998 | 25536 ft | 395 kts | 77° |
| 2026-04-25 11:54 | 34.90824 | 135.24560 | 25973 ft | 401 kts | 77° |
| 2026-04-25 11:55 | 34.91473 | 135.27873 | 26203 ft | 403 kts | 77° |
| 2026-04-25 11:55 | 34.92124 | 135.31198 | 26416 ft | 406 kts | 77° |
| 2026-04-25 11:55 | 34.92761 | 135.34563 | 26602 ft | 409 kts | 81° |
| 2026-04-25 11:55 | 34.93050 | 135.38013 | 26746 ft | 409 kts | 94° |
| 2026-04-25 11:56 | 34.92911 | 135.41468 | 27004 ft | 408 kts | 98° |
| 2026-04-25 11:56 | 34.92696 | 135.44920 | 27209 ft | 410 kts | 99° |
| 2026-04-25 11:56 | 34.92466 | 135.48398 | 27403 ft | 412 kts | 99° |
| 2026-04-25 11:56 | 34.92231 | 135.51895 | 27630 ft | 414 kts | 99° |
| 2026-04-25 11:57 | 34.92007 | 135.55411 | 27774 ft | 418 kts | 99° |
| 2026-04-25 11:57 | 34.91787 | 135.58954 | 27959 ft | 421 kts | 99° |
| 2026-04-25 11:57 | 34.91572 | 135.62510 | 28184 ft | 421 kts | 99° |
| 2026-04-25 11:57 | 34.91361 | 135.66086 | 28327 ft | 424 kts | 99° |
| 2026-04-25 11:58 | 34.91147 | 135.69681 | 28451 ft | 427 kts | 100° |
| 2026-04-25 11:58 | 34.90928 | 135.73289 | 28617 ft | 428 kts | 99° |
| 2026-04-25 11:58 | 34.90730 | 135.76912 | 28683 ft | 431 kts | 99° |
| 2026-04-25 11:58 | 34.90522 | 135.80565 | 28824 ft | 432 kts | 99° |
| 2026-04-25 11:59 | 34.90294 | 135.84222 | 29019 ft | 433 kts | 99° |
| 2026-04-25 11:59 | 34.90144 | 135.86643 | 29141 ft | 433 kts | 99° |
| 2026-04-25 11:59 | 34.89836 | 135.91556 | 29276 ft | 437 kts | 100° |
| 2026-04-25 12:00 | 34.89448 | 135.97721 | 29538 ft | 441 kts | 101° |
| 2026-04-25 12:00 | 34.89218 | 136.01443 | 29669 ft | 442 kts | 100° |
| 2026-04-25 12:00 | 34.88746 | 136.08967 | 29920 ft | 447 kts | 101° |
| 2026-04-25 12:01 | 34.88512 | 136.12743 | 30075 ft | 448 kts | 101° |
| 2026-04-25 12:01 | 34.88027 | 136.20333 | 30328 ft | 451 kts | 101° |
| 2026-04-25 12:01 | 34.87712 | 136.25378 | 30461 ft | 452 kts | 101° |
| 2026-04-25 12:02 | 34.87302 | 136.31793 | 30683 ft | 453 kts | 101° |
| 2026-04-25 12:02 | 34.86797 | 136.39467 | 30781 ft | 457 kts | 101° |
| 2026-04-25 12:03 | 34.86302 | 136.47213 | 31023 ft | 460 kts | 101° |
| 2026-04-25 12:03 | 34.85796 | 136.54948 | 31165 ft | 463 kts | 101° |
| 2026-04-25 12:04 | 34.85530 | 136.58913 | 31270 ft | 465 kts | 101° |
| 2026-04-25 12:04 | 34.85272 | 136.62832 | 31387 ft | 464 kts | 101° |
| 2026-04-25 12:04 | 34.84749 | 136.70650 | 31555 ft | 467 kts | 101° |
| 2026-04-25 12:05 | 34.84215 | 136.78548 | 31716 ft | 469 kts | 102° |
| 2026-04-25 12:05 | 34.83944 | 136.82510 | 31826 ft | 470 kts | 102° |
| 2026-04-25 12:05 | 34.83673 | 136.86472 | 31957 ft | 469 kts | 102° |
| 2026-04-25 12:06 | 34.83124 | 136.94417 | 32028 ft | 473 kts | 102° |
| 2026-04-25 12:06 | 34.82370 | 137.02351 | 32181 ft | 471 kts | 106° |
| 2026-04-25 12:07 | 34.81428 | 137.10247 | 32303 ft | 474 kts | 107° |
| 2026-04-25 12:07 | 34.80494 | 137.18220 | 32427 ft | 477 kts | 106° |
| 2026-04-25 12:08 | 34.79588 | 137.26226 | 32554 ft | 479 kts | 106° |
| 2026-04-25 12:08 | 34.78684 | 137.34256 | 32692 ft | 479 kts | 106° |
| 2026-04-25 12:09 | 34.78229 | 137.38275 | 32794 ft | 479 kts | 107° |
| 2026-04-25 12:09 | 34.77772 | 137.42290 | 32872 ft | 479 kts | 107° |
| 2026-04-25 12:09 | 34.76851 | 137.50340 | 32971 ft | 482 kts | 107° |
| 2026-04-25 12:10 | 34.75922 | 137.58409 | 33123 ft | 482 kts | 107° |
| 2026-04-25 12:10 | 34.74986 | 137.66498 | 33207 ft | 484 kts | 107° |
| 2026-04-25 12:11 | 34.74125 | 137.74630 | 33317 ft | 486 kts | 105° |
| 2026-04-25 12:11 | 34.73371 | 137.82762 | 33390 ft | 488 kts | 105° |
| 2026-04-25 12:12 | 34.72720 | 137.89628 | 33491 ft | 488 kts | 105° |
| 2026-04-25 12:12 | 34.71789 | 137.99162 | 33608 ft | 489 kts | 105° |
| 2026-04-25 12:13 | 34.71254 | 138.07503 | 33698 ft | 497 kts | 97° |
| 2026-04-25 12:13 | 34.71338 | 138.15895 | 33763 ft | 501 kts | 95° |
| 2026-04-25 12:14 | 34.71478 | 138.24359 | 33873 ft | 501 kts | 96° |
| 2026-04-25 12:14 | 34.71542 | 138.32820 | 33930 ft | 501 kts | 96° |
| 2026-04-25 12:15 | 34.71564 | 138.41306 | 33991 ft | 502 kts | 97° |
| 2026-04-25 12:15 | 34.71578 | 138.49795 | 34028 ft | 503 kts | 96° |
| 2026-04-25 12:16 | 34.71591 | 138.58308 | 34019 ft | 504 kts | 97° |
| 2026-04-25 12:16 | 34.71600 | 138.66814 | 34014 ft | 503 kts | 97° |
| 2026-04-25 12:17 | 34.71602 | 138.75298 | 34020 ft | 502 kts | 96° |
| 2026-04-25 12:17 | 34.71592 | 138.83789 | 34034 ft | 503 kts | 97° |
| 2026-04-25 12:18 | 34.71548 | 138.92289 | 34022 ft | 503 kts | 97° |
| 2026-04-25 12:18 | 34.71498 | 139.00779 | 34021 ft | 502 kts | 97° |
| 2026-04-25 12:19 | 34.71418 | 139.13484 | 34036 ft | 500 kts | 97° |
| 2026-04-25 12:20 | 34.71358 | 139.21936 | 34036 ft | 500 kts | 97° |
| 2026-04-25 12:20 | 34.71294 | 139.30371 | 34042 ft | 499 kts | 97° |
| 2026-04-25 12:21 | 34.71274 | 139.38803 | 34041 ft | 503 kts | 90° |
| 2026-04-25 12:21 | 34.72003 | 139.42980 | 34056 ft | 508 kts | 68° |
| 2026-04-25 12:21 | 34.73603 | 139.46778 | 34087 ft | 503 kts | 56° |
| 2026-04-25 12:22 | 34.77276 | 139.54028 | 34057 ft | 504 kts | 55° |
| 2026-04-25 12:22 | 34.80911 | 139.61276 | 33994 ft | 492 kts | 56° |
| 2026-04-25 12:22 | 34.82630 | 139.64786 | 33745 ft | 474 kts | 56° |
| 2026-04-25 12:23 | 34.84291 | 139.68205 | 33233 ft | 465 kts | 56° |
| 2026-04-25 12:23 | 34.85929 | 139.71580 | 32601 ft | 461 kts | 56° |
| 2026-04-25 12:23 | 34.87549 | 139.74917 | 32037 ft | 454 kts | 56° |
| 2026-04-25 12:23 | 34.89141 | 139.78199 | 31518 ft | 446 kts | 56° |
| 2026-04-25 12:24 | 34.90704 | 139.81421 | 30994 ft | 439 kts | 55° |
| 2026-04-25 12:24 | 34.92240 | 139.84602 | 30502 ft | 432 kts | 56° |
| 2026-04-25 12:24 | 34.93745 | 139.87733 | 30044 ft | 424 kts | 55° |
| 2026-04-25 12:24 | 34.95206 | 139.90865 | 29078 ft | 432 kts | 64° |
| 2026-04-25 12:25 | 34.96013 | 139.94434 | 27837 ft | 443 kts | 88° |
| 2026-04-25 12:25 | 34.95828 | 139.98144 | 26686 ft | 435 kts | 110° |
| 2026-04-25 12:25 | 34.94726 | 140.01467 | 25790 ft | 412 kts | 130° |
| 2026-04-25 12:25 | 34.92976 | 140.04073 | 24983 ft | 385 kts | 148° |
| 2026-04-25 12:26 | 34.90845 | 140.05839 | 24129 ft | 360 kts | 164° |
| 2026-04-25 12:26 | 34.88552 | 140.06787 | 23220 ft | 340 kts | 178° |
| 2026-04-25 12:26 | 34.86257 | 140.07001 | 22296 ft | 324 kts | 191° |
| 2026-04-25 12:26 | 34.84080 | 140.06580 | 21384 ft | 311 kts | 203° |
| 2026-04-25 12:27 | 34.82107 | 140.05620 | 20432 ft | 302 kts | 213° |
| 2026-04-25 12:27 | 34.80334 | 140.04303 | 19529 ft | 296 kts | 220° |
| 2026-04-25 12:27 | 34.78807 | 140.02674 | 18569 ft | 290 kts | 232° |
| 2026-04-25 12:27 | 34.77671 | 140.00679 | 17624 ft | 286 kts | 240° |
| 2026-04-25 12:28 | 34.76648 | 139.98643 | 16725 ft | 286 kts | 240° |
| 2026-04-25 12:28 | 34.75623 | 139.96564 | 15801 ft | 285 kts | 240° |
| 2026-04-25 12:28 | 34.74589 | 139.94511 | 14892 ft | 285 kts | 240° |
| 2026-04-25 12:28 | 34.73590 | 139.92433 | 13979 ft | 284 kts | 245° |
| 2026-04-25 12:29 | 34.73231 | 139.90107 | 13051 ft | 284 kts | 276° |
| 2026-04-25 12:29 | 34.73822 | 139.87842 | 12214 ft | 282 kts | 298° |
| 2026-04-25 12:29 | 34.75058 | 139.86005 | 11366 ft | 282 kts | 319° |
| 2026-04-25 12:29 | 34.76765 | 139.84842 | 10527 ft | 285 kts | 342° |
| 2026-04-25 12:30 | 34.78723 | 139.84511 | 9890 ft | 284 kts | 4° |
| 2026-04-25 12:30 | 34.80637 | 139.84975 | 9420 ft | 277 kts | 14° |
| 2026-04-25 12:30 | 34.82484 | 139.85578 | 8884 ft | 273 kts | 15° |
| 2026-04-25 12:30 | 34.84304 | 139.86188 | 8303 ft | 271 kts | 16° |
| 2026-04-25 12:31 | 34.86120 | 139.86789 | 7689 ft | 270 kts | 16° |
| 2026-04-25 12:31 | 34.87928 | 139.87380 | 7128 ft | 268 kts | 16° |
| 2026-04-25 12:31 | 34.89712 | 139.87958 | 6651 ft | 262 kts | 16° |
| 2026-04-25 12:31 | 34.91409 | 139.88506 | 6538 ft | 242 kts | 16° |
| 2026-04-25 12:32 | 34.92980 | 139.89014 | 6406 ft | 225 kts | 16° |
| 2026-04-25 12:32 | 34.94489 | 139.89334 | 6189 ft | 220 kts | 2° |
| 2026-04-25 12:32 | 34.96079 | 139.89142 | 6086 ft | 244 kts | 351° |
| 2026-04-25 12:32 | 34.97790 | 139.88649 | 6058 ft | 258 kts | 347° |
| 2026-04-25 12:33 | 34.99543 | 139.88079 | 6011 ft | 262 kts | 346° |
| 2026-04-25 12:33 | 35.01294 | 139.87503 | 6014 ft | 260 kts | 346° |
| 2026-04-25 12:33 | 35.03043 | 139.86934 | 5995 ft | 260 kts | 346° |
| 2026-04-25 12:33 | 35.04795 | 139.86369 | 5988 ft | 260 kts | 347° |
| 2026-04-25 12:34 | 35.06539 | 139.85810 | 5996 ft | 259 kts | 347° |
| 2026-04-25 12:34 | 35.08279 | 139.85253 | 6013 ft | 258 kts | 347° |
| 2026-04-25 12:34 | 35.10018 | 139.84700 | 5992 ft | 259 kts | 347° |
| 2026-04-25 12:34 | 35.11185 | 139.84369 | 5913 ft | 261 kts | 353° |
| 2026-04-25 12:35 | 35.13437 | 139.85137 | 5552 ft | 255 kts | 40° |
| 2026-04-25 12:35 | 35.14740 | 139.86583 | 5340 ft | 252 kts | 43° |
| 2026-04-25 12:35 | 35.16038 | 139.88030 | 5106 ft | 252 kts | 43° |
| 2026-04-25 12:35 | 35.17325 | 139.89442 | 5013 ft | 248 kts | 43° |
| 2026-04-25 12:36 | 35.18586 | 139.90799 | 4996 ft | 235 kts | 42° |
| 2026-04-25 12:36 | 35.19174 | 139.91429 | 4988 ft | 231 kts | 42° |